sensor_id;sensor_type;location;lat;lon;timestamp;pressure;altitude;pressure_sealevel;temperature;humidity
65127;BME280;51927;49.080;19.652;2023-02-20T00:00:04;94834.16;;;27.65;32.38
65127;BME280;51927;49.080;19.652;2023-02-20T00:00:15;94841.78;;;27.63;32.57
65127;BME280;51927;49.080;19.652;2023-02-20T00:00:23;94831.03;;;27.63;32.65
65127;BME280;51927;49.080;19.652;2023-02-20T00:00:30;94834.81;;;27.61;32.68
65127;BME280;51927;49.080;19.652;2023-02-20T00:00:36;94831.34;;;27.61;32.41
65127;BME280;51927;49.080;19.652;2023-02-20T00:00:41;94830.22;;;27.62;32.44
65127;BME280;51927;49.080;19.652;2023-02-20T00:00:47;94832.47;;;27.60;32.42
65127;BME280;51927;49.080;19.652;2023-02-20T00:00:52;94826.31;;;27.59;32.54
65127;BME280;51927;49.080;19.652;2023-02-20T00:00:57;94832.03;;;27.58;32.53
65127;BME280;51927;49.080;19.652;2023-02-20T00:01:02;94837.84;;;27.60;32.69
65127;BME280;51927;49.080;19.652;2023-02-20T00:01:08;94829.00;;;27.59;32.51
65127;BME280;51927;49.080;19.652;2023-02-20T00:01:13;94837.50;;;27.61;32.35
65127;BME280;51927;49.080;19.652;2023-02-20T00:01:18;94832.13;;;27.61;32.34
65127;BME280;51927;49.080;19.652;2023-02-20T00:01:24;94832.59;;;27.64;32.50
65127;BME280;51927;49.080;19.652;2023-02-20T00:01:30;94837.31;;;27.67;32.65
65127;BME280;51927;49.080;19.652;2023-02-20T00:01:36;94829.22;;;27.67;32.21
65127;BME280;51927;49.080;19.652;2023-02-20T00:01:48;94833.38;;;27.64;32.32
65127;BME280;51927;49.080;19.652;2023-02-20T00:01:54;94836.41;;;27.63;32.51
65127;BME280;51927;49.080;19.652;2023-02-20T00:02:00;94840.22;;;27.61;32.58
65127;BME280;51927;49.080;19.652;2023-02-20T00:02:05;94837.06;;;27.59;32.39
65127;BME280;51927;49.080;19.652;2023-02-20T00:02:11;94838.19;;;27.58;32.48
65127;BME280;51927;49.080;19.652;2023-02-20T00:02:16;94840.53;;;27.60;32.07
65127;BME280;51927;49.080;19.652;2023-02-20T00:02:21;94833.91;;;27.57;32.70
65127;BME280;51927;49.080;19.652;2023-02-20T00:02:27;94835.50;;;27.58;32.56
65127;BME280;51927;49.080;19.652;2023-02-20T00:02:34;94835.50;;;27.58;32.52
65127;BME280;51927;49.080;19.652;2023-02-20T00:02:39;94838.94;;;27.59;32.66
65127;BME280;51927;49.080;19.652;2023-02-20T00:02:46;94837.06;;;27.59;32.56
65127;BME280;51927;49.080;19.652;2023-02-20T00:02:51;94827.88;;;27.60;32.45
65127;BME280;51927;49.080;19.652;2023-02-20T00:02:56;94827.88;;;27.60;32.50
65127;BME280;51927;49.080;19.652;2023-02-20T00:03:02;94838.28;;;27.62;32.55
65127;BME280;51927;49.080;19.652;2023-02-20T00:03:08;94843.34;;;27.64;32.40
65127;BME280;51927;49.080;19.652;2023-02-20T00:03:14;94835.28;;;27.64;32.45
65127;BME280;51927;49.080;19.652;2023-02-20T00:03:19;94839.53;;;27.65;32.46
65127;BME280;51927;49.080;19.652;2023-02-20T00:03:24;94821.50;;;27.65;32.63
65127;BME280;51927;49.080;19.652;2023-02-20T00:03:30;94834.50;;;27.63;32.42
65127;BME280;51927;49.080;19.652;2023-02-20T00:03:35;94837.97;;;27.64;32.42
65127;BME280;51927;49.080;19.652;2023-02-20T00:03:41;94832.59;;;27.64;32.51
65127;BME280;51927;49.080;19.652;2023-02-20T00:03:46;94840.31;;;27.65;32.30
65127;BME280;51927;49.080;19.652;2023-02-20T00:03:51;94837.97;;;27.64;32.31
65127;BME280;51927;49.080;19.652;2023-02-20T00:03:57;94833.72;;;27.63;32.56
65127;BME280;51927;49.080;19.652;2023-02-20T00:04:02;94831.81;;;27.63;32.54
65127;BME280;51927;49.080;19.652;2023-02-20T00:04:07;94834.16;;;27.65;32.43
65127;BME280;51927;49.080;19.652;2023-02-20T00:04:13;94833.06;;;27.66;32.30
65127;BME280;51927;49.080;19.652;2023-02-20T00:04:18;94834.16;;;27.65;32.61
65127;BME280;51927;49.080;19.652;2023-02-20T00:04:24;94828.44;;;27.66;32.48
65127;BME280;51927;49.080;19.652;2023-02-20T00:04:29;94837.31;;;27.67;32.50
65127;BME280;51927;49.080;19.652;2023-02-20T00:04:34;94836.53;;;27.66;32.43
65127;BME280;51927;49.080;19.652;2023-02-20T00:04:39;94835.75;;;27.66;32.43
65127;BME280;51927;49.080;19.652;2023-02-20T00:04:45;94836.53;;;27.66;32.45
65127;BME280;51927;49.080;19.652;2023-02-20T00:04:50;94834.16;;;27.65;32.46
65127;BME280;51927;49.080;19.652;2023-02-20T00:04:55;94842.22;;;27.65;32.45
65127;BME280;51927;49.080;19.652;2023-02-20T00:05:01;94843.34;;;27.64;32.40
65127;BME280;51927;49.080;19.652;2023-02-20T00:05:06;94841.78;;;27.63;32.44
65127;BME280;51927;49.080;19.652;2023-02-20T00:05:11;94837.97;;;27.64;32.34
65127;BME280;51927;49.080;19.652;2023-02-20T00:05:17;94839.53;;;27.65;32.28
65127;BME280;51927;49.080;19.652;2023-02-20T00:05:23;94841.13;;;27.66;32.49
65127;BME280;51927;49.080;19.652;2023-02-20T00:05:28;94825.00;;;27.66;32.48
65127;BME280;51927;49.080;19.652;2023-02-20T00:05:33;94833.50;;;27.68;32.24
65127;BME280;51927;49.080;19.652;2023-02-20T00:05:38;94826.97;;;27.69;32.26
65127;BME280;51927;49.080;19.652;2023-02-20T00:05:44;94826.97;;;27.69;32.37
65127;BME280;51927;49.080;19.652;2023-02-20T00:05:49;94835.88;;;27.69;32.26
65127;BME280;51927;49.080;19.652;2023-02-20T00:05:54;94828.13;;;27.68;32.73
65127;BME280;51927;49.080;19.652;2023-02-20T00:06:00;94829.69;;;27.69;32.18
65127;BME280;51927;49.080;19.652;2023-02-20T00:06:05;94827.47;;;27.71;32.36
65127;BME280;51927;49.080;19.652;2023-02-20T00:06:10;94828.56;;;27.70;32.22
65127;BME280;51927;49.080;19.652;2023-02-20T00:06:15;94832.38;;;27.69;32.43
65127;BME280;51927;49.080;19.652;2023-02-20T00:06:20;94826.97;;;27.69;32.30
65127;BME280;51927;49.080;19.652;2023-02-20T00:06:26;94830.81;;;27.68;32.35
65127;BME280;51927;49.080;19.652;2023-02-20T00:06:31;94832.69;;;27.67;32.39
65127;BME280;51927;49.080;19.652;2023-02-20T00:06:36;94838.88;;;27.68;32.56
65127;BME280;51927;49.080;19.652;2023-02-20T00:06:41;94837.31;;;27.67;32.53
65127;BME280;51927;49.080;19.652;2023-02-20T00:06:46;94833.84;;;27.66;32.32
65127;BME280;51927;49.080;19.652;2023-02-20T00:06:51;94841.13;;;27.66;32.29
65127;BME280;51927;49.080;19.652;2023-02-20T00:06:57;94828.78;;;27.65;32.46
65127;BME280;51927;49.080;19.652;2023-02-20T00:07:02;94837.63;;;27.65;32.58
65127;BME280;51927;49.080;19.652;2023-02-20T00:07:07;94833.38;;;27.64;32.40
65127;BME280;51927;49.080;19.652;2023-02-20T00:07:12;94843.81;;;27.66;32.38
65127;BME280;51927;49.080;19.652;2023-02-20T00:07:17;94839.53;;;27.65;32.46
65127;BME280;51927;49.080;19.652;2023-02-20T00:07:23;94841.13;;;27.66;32.55
65127;BME280;51927;49.080;19.652;2023-02-20T00:07:28;94838.44;;;27.66;32.50
65127;BME280;51927;49.080;19.652;2023-02-20T00:07:33;94840.00;;;27.67;32.36
65127;BME280;51927;49.080;19.652;2023-02-20T00:07:38;94840.00;;;27.67;32.39
65127;BME280;51927;49.080;19.652;2023-02-20T00:07:44;94840.00;;;27.67;32.54
65127;BME280;51927;49.080;19.652;2023-02-20T00:07:49;94843.47;;;27.67;32.30
65127;BME280;51927;49.080;19.652;2023-02-20T00:07:54;94837.31;;;27.67;32.23
65127;BME280;51927;49.080;19.652;2023-02-20T00:07:59;94841.91;;;27.66;32.50
65127;BME280;51927;49.080;19.652;2023-02-20T00:08:04;94840.31;;;27.65;32.45
65127;BME280;51927;49.080;19.652;2023-02-20T00:08:10;94835.75;;;27.66;32.39
65127;BME280;51927;49.080;19.652;2023-02-20T00:08:15;94841.13;;;27.66;32.66
65127;BME280;51927;49.080;19.652;2023-02-20T00:08:20;94841.13;;;27.66;32.54
65127;BME280;51927;49.080;19.652;2023-02-20T00:08:27;94833.38;;;27.64;32.37
65127;BME280;51927;49.080;19.652;2023-02-20T00:08:32;94839.53;;;27.65;32.42
65127;BME280;51927;49.080;19.652;2023-02-20T00:08:37;94834.16;;;27.65;32.49
65127;BME280;51927;49.080;19.652;2023-02-20T00:08:42;94834.94;;;27.65;32.69
65127;BME280;51927;49.080;19.652;2023-02-20T00:08:48;94845.25;;;27.63;32.24
65127;BME280;51927;49.080;19.652;2023-02-20T00:08:53;94840.66;;;27.64;32.37
65127;BME280;51927;49.080;19.652;2023-02-20T00:08:58;94838.28;;;27.62;32.51
65127;BME280;51927;49.080;19.652;2023-02-20T00:09:03;94836.75;;;27.61;32.57
65127;BME280;51927;49.080;19.652;2023-02-20T00:09:08;94834.03;;;27.61;32.31
65127;BME280;51927;49.080;19.652;2023-02-20T00:09:13;94844.47;;;27.63;32.61
65127;BME280;51927;49.080;19.652;2023-02-20T00:09:19;94844.94;;;27.65;32.46
65127;BME280;51927;49.080;19.652;2023-02-20T00:09:24;94842.22;;;27.65;32.50
65127;BME280;51927;49.080;19.652;2023-02-20T00:09:29;94829.88;;;27.64;32.73
65127;BME280;51927;49.080;19.652;2023-02-20T00:09:34;94836.06;;;27.64;32.45
65127;BME280;51927;49.080;19.652;2023-02-20T00:09:39;94842.22;;;27.65;32.61
65127;BME280;51927;49.080;19.652;2023-02-20T00:09:44;94837.97;;;27.64;32.37
65127;BME280;51927;49.080;19.652;2023-02-20T00:09:50;94833.38;;;27.64;32.46
65127;BME280;51927;49.080;19.652;2023-02-20T00:09:55;94839.53;;;27.65;32.58
65127;BME280;51927;49.080;19.652;2023-02-20T00:10:00;94844.94;;;27.65;32.72
65127;BME280;51927;49.080;19.652;2023-02-20T00:10:05;94841.13;;;27.66;32.46
65127;BME280;51927;49.080;19.652;2023-02-20T00:10:11;94840.00;;;27.67;32.48
65127;BME280;51927;49.080;19.652;2023-02-20T00:10:16;94836.84;;;27.65;32.54
65127;BME280;51927;49.080;19.652;2023-02-20T00:10:22;94836.41;;;27.63;32.37
65127;BME280;51927;49.080;19.652;2023-02-20T00:10:28;94845.59;;;27.61;32.55
65127;BME280;51927;49.080;19.652;2023-02-20T00:10:33;94840.53;;;27.60;32.76
65127;BME280;51927;49.080;19.652;2023-02-20T00:10:38;94839.75;;;27.59;32.72
65127;BME280;51927;49.080;19.652;2023-02-20T00:10:44;94845.59;;;27.61;32.44
65127;BME280;51927;49.080;19.652;2023-02-20T00:10:49;94841.31;;;27.60;32.46
65127;BME280;51927;49.080;19.652;2023-02-20T00:10:54;94845.59;;;27.61;32.64
65127;BME280;51927;49.080;19.652;2023-02-20T00:10:59;94846.84;;;27.64;32.62
65127;BME280;51927;49.080;19.652;2023-02-20T00:11:04;94843.81;;;27.66;32.69
65127;BME280;51927;49.080;19.652;2023-02-20T00:11:09;94841.91;;;27.66;32.41
65127;BME280;51927;49.080;19.652;2023-02-20T00:11:15;94841.13;;;27.66;32.46
65127;BME280;51927;49.080;19.652;2023-02-20T00:11:20;94838.44;;;27.66;32.68
65127;BME280;51927;49.080;19.652;2023-02-20T00:11:25;94840.00;;;27.67;32.51
65127;BME280;51927;49.080;19.652;2023-02-20T00:11:30;94842.22;;;27.65;32.27
65127;BME280;51927;49.080;19.652;2023-02-20T00:11:36;94846.50;;;27.66;32.55
65127;BME280;51927;49.080;19.652;2023-02-20T00:11:41;94843.81;;;27.66;32.46
65127;BME280;51927;49.080;19.652;2023-02-20T00:11:46;94845.38;;;27.67;32.56
65127;BME280;51927;49.080;19.652;2023-02-20T00:11:51;94841.56;;;27.68;32.48
65127;BME280;51927;49.080;19.652;2023-02-20T00:11:56;94840.00;;;27.67;32.58
65127;BME280;51927;49.080;19.652;2023-02-20T00:12:02;94840.78;;;27.67;32.44
65127;BME280;51927;49.080;19.652;2023-02-20T00:12:07;94839.66;;;27.68;32.24
65127;BME280;51927;49.080;19.652;2023-02-20T00:12:12;94841.56;;;27.68;32.36
65127;BME280;51927;49.080;19.652;2023-02-20T00:12:17;94844.25;;;27.68;32.42
65127;BME280;51927;49.080;19.652;2023-02-20T00:12:22;94840.00;;;27.67;32.51
65127;BME280;51927;49.080;19.652;2023-02-20T00:12:27;94839.22;;;27.66;32.61
65127;BME280;51927;49.080;19.652;2023-02-20T00:12:33;94850.75;;;27.67;32.42
65127;BME280;51927;49.080;19.652;2023-02-20T00:12:38;94840.78;;;27.67;32.36
65127;BME280;51927;49.080;19.652;2023-02-20T00:12:43;94841.13;;;27.66;32.64
65127;BME280;51927;49.080;19.652;2023-02-20T00:12:49;94840.31;;;27.65;32.34
65127;BME280;51927;49.080;19.652;2023-02-20T00:12:54;94845.38;;;27.67;32.48
65127;BME280;51927;49.080;19.652;2023-02-20T00:12:59;94843.47;;;27.67;32.32
65127;BME280;51927;49.080;19.652;2023-02-20T00:13:04;94844.25;;;27.68;32.33
65127;BME280;51927;49.080;19.652;2023-02-20T00:13:10;94840.78;;;27.67;32.49
65127;BME280;51927;49.080;19.652;2023-02-20T00:13:15;94845.38;;;27.67;32.32
65127;BME280;51927;49.080;19.652;2023-02-20T00:13:20;94844.25;;;27.68;32.49
65127;BME280;51927;49.080;19.652;2023-02-20T00:13:25;94844.25;;;27.68;32.42
65127;BME280;51927;49.080;19.652;2023-02-20T00:13:30;94845.03;;;27.68;32.44
65127;BME280;51927;49.080;19.652;2023-02-20T00:13:35;94843.13;;;27.69;32.42
65127;BME280;51927;49.080;19.652;2023-02-20T00:13:44;94845.81;;;27.69;32.20
65127;BME280;51927;49.080;19.652;2023-02-20T00:13:49;94845.03;;;27.68;32.54
65127;BME280;51927;49.080;19.652;2023-02-20T00:13:54;94842.34;;;27.68;32.44
65127;BME280;51927;49.080;19.652;2023-02-20T00:13:59;94837.31;;;27.67;32.27
65127;BME280;51927;49.080;19.652;2023-02-20T00:14:04;94841.56;;;27.68;32.45
65127;BME280;51927;49.080;19.652;2023-02-20T00:14:10;94849.66;;;27.68;32.57
65127;BME280;51927;49.080;19.652;2023-02-20T00:14:15;94846.16;;;27.67;32.50
65127;BME280;51927;49.080;19.652;2023-02-20T00:14:20;94841.91;;;27.66;32.51
65127;BME280;51927;49.080;19.652;2023-02-20T00:14:26;94844.25;;;27.68;32.49
65127;BME280;51927;49.080;19.652;2023-02-20T00:14:31;94841.56;;;27.68;32.37
65127;BME280;51927;49.080;19.652;2023-02-20T00:14:36;94841.91;;;27.66;32.29
65127;BME280;51927;49.080;19.652;2023-02-20T00:14:42;94845.38;;;27.67;32.48
65127;BME280;51927;49.080;19.652;2023-02-20T00:14:47;94838.44;;;27.66;32.45
65127;BME280;51927;49.080;19.652;2023-02-20T00:14:52;94840.00;;;27.67;32.47
65127;BME280;51927;49.080;19.652;2023-02-20T00:14:57;94836.53;;;27.66;32.60
65127;BME280;51927;49.080;19.652;2023-02-20T00:15:03;94841.56;;;27.68;32.49
65127;BME280;51927;49.080;19.652;2023-02-20T00:15:08;94838.88;;;27.68;32.26
65127;BME280;51927;49.080;19.652;2023-02-20T00:15:14;94837.31;;;27.67;32.43
65127;BME280;51927;49.080;19.652;2023-02-20T00:15:20;94840.78;;;27.67;32.42
65127;BME280;51927;49.080;19.652;2023-02-20T00:15:25;94830.00;;;27.67;32.59
65127;BME280;51927;49.080;19.652;2023-02-20T00:15:30;94837.31;;;27.67;32.29
65127;BME280;51927;49.080;19.652;2023-02-20T00:15:36;94839.66;;;27.68;32.37
65127;BME280;51927;49.080;19.652;2023-02-20T00:15:41;94836.19;;;27.68;32.66
65127;BME280;51927;49.080;19.652;2023-02-20T00:15:46;94831.25;;;27.70;32.28
65127;BME280;51927;49.080;19.652;2023-02-20T00:15:51;94835.06;;;27.69;32.39
65127;BME280;51927;49.080;19.652;2023-02-20T00:15:56;94835.06;;;27.69;32.50
65127;BME280;51927;49.080;19.652;2023-02-20T00:16:02;94830.81;;;27.68;32.50
65127;BME280;51927;49.080;19.652;2023-02-20T00:16:07;94836.97;;;27.68;32.48
65127;BME280;51927;49.080;19.652;2023-02-20T00:16:12;94838.06;;;27.67;32.45
65127;BME280;51927;49.080;19.652;2023-02-20T00:16:18;94833.50;;;27.68;32.31
65127;BME280;51927;49.080;19.652;2023-02-20T00:16:23;94835.38;;;27.67;32.51
65127;BME280;51927;49.080;19.652;2023-02-20T00:16:28;94842.34;;;27.68;32.51
65127;BME280;51927;49.080;19.652;2023-02-20T00:16:33;94830.00;;;27.67;32.49
65127;BME280;51927;49.080;19.652;2023-02-20T00:16:38;94838.44;;;27.66;32.48
65127;BME280;51927;49.080;19.652;2023-02-20T00:16:45;94837.97;;;27.64;32.57
65127;BME280;51927;49.080;19.652;2023-02-20T00:16:50;94830.69;;;27.64;32.33
65127;BME280;51927;49.080;19.652;2023-02-20T00:16:56;94829.88;;;27.64;32.63
65127;BME280;51927;49.080;19.652;2023-02-20T00:17:01;94835.75;;;27.66;32.56
65127;BME280;51927;49.080;19.652;2023-02-20T00:17:06;94831.91;;;27.67;32.54
65127;BME280;51927;49.080;19.652;2023-02-20T00:17:11;94838.06;;;27.67;32.41
65127;BME280;51927;49.080;19.652;2023-02-20T00:17:16;94825.44;;;27.68;32.45
65127;BME280;51927;49.080;19.652;2023-02-20T00:17:21;94833.06;;;27.66;32.50
65127;BME280;51927;49.080;19.652;2023-02-20T00:17:27;94831.16;;;27.66;32.43
65127;BME280;51927;49.080;19.652;2023-02-20T00:17:32;94828.78;;;27.65;32.72
65127;BME280;51927;49.080;19.652;2023-02-20T00:17:37;94832.59;;;27.64;32.48
65127;BME280;51927;49.080;19.652;2023-02-20T00:17:42;94832.25;;;27.65;32.66
65127;BME280;51927;49.080;19.652;2023-02-20T00:17:51;94835.75;;;27.66;32.43
65127;BME280;51927;49.080;19.652;2023-02-20T00:17:56;94839.53;;;27.65;32.64
65127;BME280;51927;49.080;19.652;2023-02-20T00:18:02;94837.97;;;27.64;32.62
65127;BME280;51927;49.080;19.652;2023-02-20T00:18:07;94833.38;;;27.64;32.52
65127;BME280;51927;49.080;19.652;2023-02-20T00:18:12;94837.97;;;27.64;32.54
65127;BME280;51927;49.080;19.652;2023-02-20T00:18:18;94836.53;;;27.66;32.56
65127;BME280;51927;49.080;19.652;2023-02-20T00:18:23;94834.63;;;27.67;32.60
65127;BME280;51927;49.080;19.652;2023-02-20T00:18:28;94841.91;;;27.66;32.51
65127;BME280;51927;49.080;19.652;2023-02-20T00:18:33;94844.94;;;27.65;32.57
65127;BME280;51927;49.080;19.652;2023-02-20T00:18:39;94836.53;;;27.66;32.62
65127;BME280;51927;49.080;19.652;2023-02-20T00:18:44;94835.75;;;27.66;32.26
65127;BME280;51927;49.080;19.652;2023-02-20T00:18:49;94840.78;;;27.67;32.55
65127;BME280;51927;49.080;19.652;2023-02-20T00:18:54;94835.75;;;27.66;32.49
65127;BME280;51927;49.080;19.652;2023-02-20T00:18:59;94842.69;;;27.67;32.61
65127;BME280;51927;49.080;19.652;2023-02-20T00:19:05;94840.00;;;27.67;32.49
65127;BME280;51927;49.080;19.652;2023-02-20T00:19:10;94839.22;;;27.66;32.45
65127;BME280;51927;49.080;19.652;2023-02-20T00:19:15;94845.69;;;27.65;32.74
65127;BME280;51927;49.080;19.652;2023-02-20T00:19:20;94836.06;;;27.64;32.50
65127;BME280;51927;49.080;19.652;2023-02-20T00:19:25;94843.34;;;27.64;32.74
65127;BME280;51927;49.080;19.652;2023-02-20T00:19:31;94843.00;;;27.65;32.56
65127;BME280;51927;49.080;19.652;2023-02-20T00:19:36;94840.78;;;27.67;32.38
65127;BME280;51927;49.080;19.652;2023-02-20T00:19:41;94840.00;;;27.67;32.63
65127;BME280;51927;49.080;19.652;2023-02-20T00:19:46;94846.50;;;27.66;32.54
65127;BME280;51927;49.080;19.652;2023-02-20T00:19:51;94842.69;;;27.67;32.47
65127;BME280;51927;49.080;19.652;2023-02-20T00:19:56;94839.66;;;27.68;32.38
65127;BME280;51927;49.080;19.652;2023-02-20T00:20:02;94842.34;;;27.68;32.41
65127;BME280;51927;49.080;19.652;2023-02-20T00:20:07;94838.06;;;27.67;32.51
65127;BME280;51927;49.080;19.652;2023-02-20T00:20:13;94848.06;;;27.67;32.51
65127;BME280;51927;49.080;19.652;2023-02-20T00:20:20;94839.22;;;27.66;32.57
65127;BME280;51927;49.080;19.652;2023-02-20T00:20:25;94843.81;;;27.66;32.66
65127;BME280;51927;49.080;19.652;2023-02-20T00:20:31;94846.50;;;27.66;32.54
65127;BME280;51927;49.080;19.652;2023-02-20T00:20:37;94851.09;;;27.65;32.46
65127;BME280;51927;49.080;19.652;2023-02-20T00:20:42;94843.81;;;27.66;32.61
65127;BME280;51927;49.080;19.652;2023-02-20T00:20:47;94841.56;;;27.68;32.54
65127;BME280;51927;49.080;19.652;2023-02-20T00:20:53;94843.47;;;27.67;32.26
65127;BME280;51927;49.080;19.652;2023-02-20T00:20:58;94848.50;;;27.69;32.55
65127;BME280;51927;49.080;19.652;2023-02-20T00:21:04;94840.44;;;27.69;32.63
65127;BME280;51927;49.080;19.652;2023-02-20T00:21:09;94847.72;;;27.68;32.42
65127;BME280;51927;49.080;19.652;2023-02-20T00:21:15;94841.56;;;27.68;32.62
65127;BME280;51927;49.080;19.652;2023-02-20T00:21:20;94849.66;;;27.68;32.49
65127;BME280;51927;49.080;19.652;2023-02-20T00:21:25;94844.25;;;27.68;32.47
65127;BME280;51927;49.080;19.652;2023-02-20T00:21:30;94843.47;;;27.67;32.54
65127;BME280;51927;49.080;19.652;2023-02-20T00:21:36;94840.78;;;27.67;32.54
65127;BME280;51927;49.080;19.652;2023-02-20T00:21:47;94841.91;;;27.66;32.58
65127;BME280;51927;49.080;19.652;2023-02-20T00:21:53;94845.38;;;27.67;32.61
65127;BME280;51927;49.080;19.652;2023-02-20T00:21:58;94845.38;;;27.67;32.44
65127;BME280;51927;49.080;19.652;2023-02-20T00:22:03;94842.69;;;27.67;32.58
65127;BME280;51927;49.080;19.652;2023-02-20T00:22:09;94854.22;;;27.67;32.59
65127;BME280;51927;49.080;19.652;2023-02-20T00:22:14;94847.63;;;27.65;32.55
65127;BME280;51927;49.080;19.652;2023-02-20T00:22:22;94849.53;;;27.64;32.52
65127;BME280;51927;49.080;19.652;2023-02-20T00:22:27;94845.59;;;27.61;32.61
65127;BME280;51927;49.080;19.652;2023-02-20T00:22:33;94851.41;;;27.64;32.57
65127;BME280;51927;49.080;19.652;2023-02-20T00:22:38;94842.91;;;27.61;32.55
65127;BME280;51927;49.080;19.652;2023-02-20T00:22:44;94846.38;;;27.62;32.74
65127;BME280;51927;49.080;19.652;2023-02-20T00:22:49;94847.16;;;27.63;32.77
65127;BME280;51927;49.080;19.652;2023-02-20T00:22:54;94847.16;;;27.63;32.65
65127;BME280;51927;49.080;19.652;2023-02-20T00:23:00;94847.94;;;27.63;32.62
65127;BME280;51927;49.080;19.652;2023-02-20T00:23:05;94846.38;;;27.62;32.57
65127;BME280;51927;49.080;19.652;2023-02-20T00:23:10;94842.56;;;27.63;32.64
65127;BME280;51927;49.080;19.652;2023-02-20T00:23:15;94843.34;;;27.64;32.62
65127;BME280;51927;49.080;19.652;2023-02-20T00:23:20;94845.25;;;27.63;32.73
65127;BME280;51927;49.080;19.652;2023-02-20T00:23:26;94847.63;;;27.65;32.74
65127;BME280;51927;49.080;19.652;2023-02-20T00:23:31;94844.16;;;27.64;32.62
65127;BME280;51927;49.080;19.652;2023-02-20T00:23:37;94844.94;;;27.65;32.62
65127;BME280;51927;49.080;19.652;2023-02-20T00:23:42;94846.50;;;27.66;32.86
65127;BME280;51927;49.080;19.652;2023-02-20T00:23:47;94846.84;;;27.64;32.69
65127;BME280;51927;49.080;19.652;2023-02-20T00:23:52;94839.88;;;27.63;32.39
65127;BME280;51927;49.080;19.652;2023-02-20T00:23:57;94847.63;;;27.65;32.55
65127;BME280;51927;49.080;19.652;2023-02-20T00:24:03;94849.19;;;27.66;32.66
65127;BME280;51927;49.080;19.652;2023-02-20T00:24:08;94842.56;;;27.63;32.65
65127;BME280;51927;49.080;19.652;2023-02-20T00:24:13;94844.94;;;27.65;32.63
65127;BME280;51927;49.080;19.652;2023-02-20T00:24:19;94848.72;;;27.64;32.63
65127;BME280;51927;49.080;19.652;2023-02-20T00:24:24;94848.72;;;27.64;32.66
65127;BME280;51927;49.080;19.652;2023-02-20T00:24:29;94848.38;;;27.65;32.58
65127;BME280;51927;49.080;19.652;2023-02-20T00:24:35;94841.47;;;27.64;32.50
65127;BME280;51927;49.080;19.652;2023-02-20T00:24:40;94850.31;;;27.65;32.75
65127;BME280;51927;49.080;19.652;2023-02-20T00:24:46;94849.84;;;27.63;32.51
65127;BME280;51927;49.080;19.652;2023-02-20T00:24:51;94851.88;;;27.66;32.70
65127;BME280;51927;49.080;19.652;2023-02-20T00:24:56;94848.06;;;27.67;32.58
65127;BME280;51927;49.080;19.652;2023-02-20T00:25:01;94849.66;;;27.68;32.54
65127;BME280;51927;49.080;19.652;2023-02-20T00:25:07;94854.59;;;27.66;32.56
65127;BME280;51927;49.080;19.652;2023-02-20T00:25:13;94851.09;;;27.65;32.62
65127;BME280;51927;49.080;19.652;2023-02-20T00:25:19;94842.69;;;27.67;32.57
65127;BME280;51927;49.080;19.652;2023-02-20T00:25:24;94850.75;;;27.67;32.42
65127;BME280;51927;49.080;19.652;2023-02-20T00:25:30;94853.00;;;27.65;32.63
65127;BME280;51927;49.080;19.652;2023-02-20T00:25:35;94849.53;;;27.64;32.50
65127;BME280;51927;49.080;19.652;2023-02-20T00:25:40;94854.09;;;27.64;32.51
65127;BME280;51927;49.080;19.652;2023-02-20T00:25:45;94853.31;;;27.63;32.63
65127;BME280;51927;49.080;19.652;2023-02-20T00:25:50;94848.72;;;27.64;32.62
65127;BME280;51927;49.080;19.652;2023-02-20T00:25:55;94853.00;;;27.65;32.46
65127;BME280;51927;49.080;19.652;2023-02-20T00:26:01;94857.28;;;27.66;32.76
65127;BME280;51927;49.080;19.652;2023-02-20T00:26:09;94853.44;;;27.67;32.62
65127;BME280;51927;49.080;19.652;2023-02-20T00:26:14;94858.03;;;27.66;32.57
65127;BME280;51927;49.080;19.652;2023-02-20T00:26:20;94851.88;;;27.66;32.56
65127;BME280;51927;49.080;19.652;2023-02-20T00:26:25;94849.53;;;27.64;32.56
65127;BME280;51927;49.080;19.652;2023-02-20T00:26:30;94850.31;;;27.65;32.60
65127;BME280;51927;49.080;19.652;2023-02-20T00:26:35;94855.25;;;27.63;32.40
65127;BME280;51927;49.080;19.652;2023-02-20T00:26:50;94853.00;;;27.65;32.60
65127;BME280;51927;49.080;19.652;2023-02-20T00:26:56;94854.09;;;27.64;32.73
65127;BME280;51927;49.080;19.652;2023-02-20T00:27:01;94853.31;;;27.63;32.71
65127;BME280;51927;49.080;19.652;2023-02-20T00:27:06;94854.09;;;27.64;32.62
65127;BME280;51927;49.080;19.652;2023-02-20T00:27:11;94849.06;;;27.62;32.64
65127;BME280;51927;49.080;19.652;2023-02-20T00:27:17;94849.84;;;27.63;32.51
65127;BME280;51927;49.080;19.652;2023-02-20T00:27:22;94853.66;;;27.61;32.69
65127;BME280;51927;49.080;19.652;2023-02-20T00:27:27;94853.31;;;27.63;32.70
65127;BME280;51927;49.080;19.652;2023-02-20T00:27:32;94852.56;;;27.63;32.89
65127;BME280;51927;49.080;19.652;2023-02-20T00:27:38;94854.09;;;27.64;32.42
65127;BME280;51927;49.080;19.652;2023-02-20T00:27:43;94853.00;;;27.65;32.50
65127;BME280;51927;49.080;19.652;2023-02-20T00:27:48;94851.09;;;27.65;32.64
65127;BME280;51927;49.080;19.652;2023-02-20T00:27:54;94844.94;;;27.65;32.62
65127;BME280;51927;49.080;19.652;2023-02-20T00:27:59;94849.53;;;27.64;32.67
65127;BME280;51927;49.080;19.652;2023-02-20T00:28:04;94847.63;;;27.65;32.67
65127;BME280;51927;49.080;19.652;2023-02-20T00:28:09;94847.28;;;27.66;32.63
65127;BME280;51927;49.080;19.652;2023-02-20T00:28:15;94848.06;;;27.67;32.62
65127;BME280;51927;49.080;19.652;2023-02-20T00:28:20;94851.09;;;27.65;32.66
65127;BME280;51927;49.080;19.652;2023-02-20T00:28:25;94850.31;;;27.65;32.62
65127;BME280;51927;49.080;19.652;2023-02-20T00:28:30;94844.94;;;27.65;32.66
65127;BME280;51927;49.080;19.652;2023-02-20T00:28:38;94847.63;;;27.65;32.87